1870 NOT_NAMED (1870042S15066)


IBTrACS version v04r00. Visit IBTrACS website for data access.
Please direct all questions to the IBTrACS Q and A forum

Storm track - Intensity - Wind Radii - Intensity Data - Source Data - All data

Summary Information

Storm ID 1870042S15066
Start Feb 11 06Z
End Feb 17 06Z
ATCF IDs
Track status Best track data.

Storm track plot

Map of storm track

Intensity plots

No Intensity information for this storm


Radial wind information

No radial wind information for this storm


Position and Intensity Table

BASIN ISO_TIME_________ NATURE LAT LON
degrees north degrees east
SI 1870-02-11 06:00:00 NR -15.40 65.60
SI 09:00:00 NR -15.61 65.36
SI 12:00:00 NR -15.81 65.13
SI 15:00:00 NR -16.01 64.90
SI 18:00:00 NR -16.21 64.67
SI 21:00:00 NR -16.39 64.46
SI 1870-02-12 00:00:00 NR -16.57 64.26
SI 03:00:00 NR -16.74 64.07
SI 06:00:00 NR -16.90 63.90
SI 09:00:00 NR -17.04 63.75
SI 12:00:00 NR -17.18 63.61
SI 15:00:00 NR -17.31 63.49
SI 18:00:00 NR -17.43 63.36
SI 21:00:00 NR -17.56 63.24
SI 1870-02-13 00:00:00 NR -17.70 63.11
SI 03:00:00 NR -17.84 62.96
SI 06:00:00 NR -18.00 62.80
SI 09:00:00 NR -18.17 62.61
SI 12:00:00 NR -18.35 62.40
SI 15:00:00 NR -18.53 62.18
SI 18:00:00 NR -18.74 61.95
SI 21:00:00 NR -18.95 61.70
SI 1870-02-14 00:00:00 NR -19.19 61.44
SI 03:00:00 NR -19.43 61.17
SI 06:00:00 NR -19.70 60.90
SI 09:00:00 NR -19.96 60.63
SI 12:00:00 NR -20.24 60.34
SI 15:00:00 NR -20.53 60.05
SI 18:00:00 NR -20.84 59.75
SI 21:00:00 NR -21.17 59.44
SI 1870-02-15 00:00:00 NR -21.53 59.13
SI 03:00:00 NR -21.90 58.82
SI 06:00:00 NR -22.30 58.50
SI 09:00:00 NR -22.77 58.15
SI 12:00:00 NR -23.28 57.79
SI 15:00:00 NR -23.80 57.43
SI 18:00:00 NR -24.32 57.07
SI 21:00:00 NR -24.83 56.74
SI 1870-02-16 00:00:00 NR -25.30 56.42
SI 03:00:00 NR -25.73 56.14
SI 06:00:00 NR -26.10 55.90
SI 09:00:00 NR -26.39 55.71
SI 12:00:00 NR -26.62 55.57
SI 15:00:00 NR -26.79 55.46
SI 18:00:00 NR -26.91 55.39
SI 21:00:00 NR -26.99 55.34
SI 1870-02-17 00:00:00 NR -27.04 55.32
SI 03:00:00 NR -27.08 55.31
SI 06:00:00 NR -27.10 55.30

Source Information

Agency Information
USA
TOKYO
CMA
HKO
NEWDELHI
REUNION WMO-Best-Tracks.txt:Line=814:xxxx870121
BOM
NADI
WELLINGTON
DS824
TD9636
TD9635
NEUMANN
MLC

All available IBTrACS Data

SEASON BASIN SUBBASIN ISO_TIME_________ NATURE LAT LON WMO AGENCY DIST2LAND LANDFALL IFLAG USA SSHS REUNION LAT REUNION LON REUNION TYPE REUNION TNUM STORM SPEED STORM DIR
Year degrees north degrees east km km 1 degrees north degrees east 1 kts degrees
1870 SI MM 1870-02-11 06:00:00 NR -15.40 65.60 reunion 987 957 _____O________ -1 -15.40 65.60 99 9.90 6 228
1870 SI MM 09:00:00 NR -15.61 65.36 957 918 _____P________ -1 -15.61 65.36 99 6 228
1870 SI MM 12:00:00 NR -15.81 65.13 918 888 _____P________ -1 -15.81 65.13 99 6 228
1870 SI MM 15:00:00 NR -16.01 64.90 888 858 _____P________ -1 -16.01 64.90 99 6 228
1870 SI MM 18:00:00 NR -16.21 64.67 858 828 _____P________ -1 -16.21 64.67 99 6 228
1870 SI MM 21:00:00 NR -16.39 64.46 828 799 _____P________ -1 -16.39 64.46 99 5 227
1870 SI MM 1870-02-12 00:00:00 NR -16.57 64.26 799 774 _____P________ -1 -16.57 64.26 99 5 227
1870 SI MM 03:00:00 NR -16.74 64.07 774 745 _____P________ -1 -16.74 64.07 99 5 226
1870 SI MM 06:00:00 NR -16.90 63.90 reunion 745 730 _____O________ -1 -16.90 63.90 99 9.90 4 226
1870 SI MM 09:00:00 NR -17.04 63.75 721 701 _____P________ -1 -17.04 63.75 99 4 225
1870 SI MM 12:00:00 NR -17.18 63.61 701 686 _____P________ -1 -17.18 63.61 99 4 224
1870 SI MM 15:00:00 NR -17.31 63.49 686 671 _____P________ -1 -17.31 63.49 99 4 223
1870 SI MM 18:00:00 NR -17.43 63.36 671 642 _____P________ -1 -17.43 63.36 99 3 223
1870 SI MM 21:00:00 NR -17.56 63.24 642 628 _____P________ -1 -17.56 63.24 99 4 223
1870 SI MM 1870-02-13 00:00:00 NR -17.70 63.11 628 613 _____P________ -1 -17.70 63.11 99 4 223
1870 SI MM 03:00:00 NR -17.84 62.96 613 584 _____P________ -1 -17.84 62.96 99 4 224
1870 SI MM 06:00:00 NR -18.00 62.80 reunion 584 555 _____O________ -1 -18.00 62.80 99 9.90 5 226
1870 SI MM 09:00:00 NR -18.17 62.61 555 532 _____P________ -1 -18.17 62.61 99 5 228
1870 SI MM 12:00:00 NR -18.35 62.40 532 503 _____P________ -1 -18.35 62.40 99 6 228
1870 SI MM 15:00:00 NR -18.53 62.18 503 475 _____P________ -1 -18.53 62.18 99 6 228
1870 SI MM 18:00:00 NR -18.74 61.95 465 437 _____P________ -1 -18.74 61.95 99 6 227
1870 SI MM 21:00:00 NR -18.95 61.70 433 406 _____P________ -1 -18.95 61.70 99 7 227
1870 SI MM 1870-02-14 00:00:00 NR -19.19 61.44 396 369 _____P________ -1 -19.19 61.44 99 7 226
1870 SI MM 03:00:00 NR -19.43 61.17 369 330 _____P________ -1 -19.43 61.17 99 7 225
1870 SI MM 06:00:00 NR -19.70 60.90 reunion 330 295 _____O________ -1 -19.70 60.90 99 9.90 7 225
1870 SI MM 09:00:00 NR -19.96 60.63 294 271 _____P________ -1 -19.96 60.63 99 8 224
1870 SI MM 12:00:00 NR -20.24 60.34 261 240 _____P________ -1 -20.24 60.34 99 8 224
1870 SI MM 15:00:00 NR -20.53 60.05 230 215 _____P________ -1 -20.53 60.05 99 8 223
1870 SI MM 18:00:00 NR -20.84 59.75 205 198 _____P________ -1 -20.84 59.75 99 9 221
1870 SI MM 21:00:00 NR -21.17 59.44 193 183 _____P________ -1 -21.17 59.44 99 9 220
1870 SI MM 1870-02-15 00:00:00 NR -21.53 59.13 183 182 _____P________ -1 -21.53 59.13 99 9 219
1870 SI MM 03:00:00 NR -21.90 58.82 193 193 _____P________ -1 -21.90 58.82 99 10 217
1870 SI MM 06:00:00 NR -22.30 58.50 reunion 217 217 _____O________ -1 -22.30 58.50 99 9.90 11 215
1870 SI MM 09:00:00 NR -22.77 58.15 260 260 _____P________ -1 -22.77 58.15 99 12 214
1870 SI MM 12:00:00 NR -23.28 57.79 303 296 _____P________ -1 -23.28 57.79 99 12 213
1870 SI MM 15:00:00 NR -23.80 57.43 324 324 _____P________ -1 -23.80 57.43 99 12 212
1870 SI MM 18:00:00 NR -24.32 57.07 358 358 _____P________ -1 -24.32 57.07 99 12 212
1870 SI MM 21:00:00 NR -24.83 56.74 396 396 _____P________ -1 -24.83 56.74 99 12 211
1870 SI MM 1870-02-16 00:00:00 NR -25.30 56.42 443 443 _____P________ -1 -25.30 56.42 99 11 211
1870 SI MM 03:00:00 NR -25.73 56.14 483 483 _____P________ -1 -25.73 56.14 99 9 211
1870 SI MM 06:00:00 NR -26.10 55.90 reunion 526 526 _____O________ -1 -26.10 55.90 99 9.90 8 210
1870 SI MM 09:00:00 NR -26.39 55.71 558 558 _____P________ -1 -26.39 55.71 99 6 210
1870 SI MM 12:00:00 NR -26.62 55.57 581 581 _____P________ -1 -26.62 55.57 99 5 209
1870 SI MM 15:00:00 NR -26.79 55.46 603 603 _____P________ -1 -26.79 55.46 99 3 209
1870 SI MM 18:00:00 NR -26.91 55.39 614 614 _____P________ -1 -26.91 55.39 99 2 207
1870 SI MM 21:00:00 NR -26.99 55.34 626 626 _____P________ -1 -26.99 55.34 99 1 209
1870 SI MM 1870-02-17 00:00:00 NR -27.04 55.32 626 626 _____P________ -1 -27.04 55.32 99 1 207
1870 SI MM 03:00:00 NR -27.08 55.31 637 637 _____P________ -1 -27.08 55.31 99 1 0
1870 SI MM 06:00:00 NR -27.10 55.30 reunion 637 _____O________ -1 -27.10 55.30 99 9.90 0 0